Time;durP1;ratioP1;P1;durP2;ratioP2;P2;SDS_P1;SDS_P2;PMS_P1;PMS_P2;Temp;Humidity;BMP_temperature;BMP_pressure;BME280_temperature;BME280_humidity;BME280_pressure;Samples;Min_cycle;Max_cycle;Signal;HPM_P1;HPM_P2
2022/02/14 00:01:02;;;;;;;30.50;14.63;;;;;;;-2.04;80.99;101602.70;1734501;82;21285;-84
2022/02/14 00:04:07;;;;;;;36.80;16.80;;;;;;;-2.17;81.48;101598.78;1733247;82;21168;-76
2022/02/14 00:07:12;;;;;;;41.85;19.48;;;;;;;-2.24;81.97;101598.64;1734360;82;21284;-76
2022/02/14 00:10:17;;;;;;;32.10;16.05;;;;;;;-2.23;82.25;101595.89;1733202;82;21161;-76
2022/02/14 00:13:22;;;;;;;36.23;18.48;;;;;;;-2.19;82.24;101586.79;1734540;79;21726;-83
2022/02/14 00:16:28;;;;;;;40.20;19.55;;;;;;;-2.16;82.14;101587.14;1734703;82;21315;-75
2022/02/14 00:19:34;;;;;;;38.70;19.00;;;;;;;-2.17;82.29;101582.69;1734882;82;21825;-76
2022/02/14 00:22:40;;;;;;;43.48;18.75;;;;;;;-2.19;82.49;101576.53;1734821;82;21165;-82
2022/02/14 00:25:46;;;;;;;47.13;20.65;;;;;;;-2.19;82.48;101580.09;1733355;82;21172;-84
2022/02/14 00:28:53;;;;;;;40.63;20.12;;;;;;;-2.22;82.43;101572.63;1733230;79;21217;-76
2022/02/14 00:31:59;;;;;;;36.55;18.95;;;;;;;-2.21;82.42;101575.71;1734000;82;21354;-77
2022/02/14 00:35:05;;;;;;;48.17;21.20;;;;;;;-2.21;82.25;101567.67;1733193;82;21802;-75
2022/02/14 00:38:12;;;;;;;35.83;17.80;;;;;;;-2.21;81.74;101571.69;1733262;82;21359;-84
2022/02/14 00:41:18;;;;;;;43.95;19.65;;;;;;;-2.23;81.31;101560.17;1733807;82;21740;-76
2022/02/14 00:44:23;;;;;;;40.88;18.15;;;;;;;-2.26;81.46;101556.27;1759516;79;21761;-84
2022/02/14 00:47:28;;;;;;;36.68;17.62;;;;;;;-2.29;81.25;101552.40;1769937;81;21292;-76
2022/02/14 00:50:34;;;;;;;43.33;19.48;;;;;;;-2.39;81.04;101546.55;1770787;81;21209;-84
2022/02/14 00:53:41;;;;;;;46.65;20.43;;;;;;;-2.46;80.98;101549.94;1770026;81;21221;-77
2022/02/14 00:56:47;;;;;;;40.58;18.60;;;;;;;-2.50;81.17;101548.31;1770564;81;21276;-82
2022/02/14 00:59:56;;;;;;;41.42;19.67;;;;;;;-2.49;81.28;101544.72;1770765;81;21320;-84
2022/02/14 01:03:02;;;;;;;38.23;19.37;;;;;;;-2.53;81.42;101544.44;1769412;81;21582;-76
2022/02/14 01:06:08;;;;;;;49.03;20.32;;;;;;;-2.55;81.72;101542.74;1768964;81;21797;-84
2022/02/14 01:09:13;;;;;;;47.13;22.22;;;;;;;-2.61;81.41;101547.89;1769045;81;21611;-76
2022/02/14 01:12:20;;;;;;;42.23;18.85;;;;;;;-2.68;81.93;101557.99;1768933;81;21871;-76
2022/02/14 01:15:27;;;;;;;42.27;19.73;;;;;;;-2.74;82.34;101544.83;1740303;82;22069;-76
2022/02/14 01:18:33;;;;;;;41.68;18.98;;;;;;;-2.76;82.14;101545.84;1740334;82;21857;-84
2022/02/14 01:21:38;;;;;;;44.27;20.15;;;;;;;-2.78;82.11;101549.02;1740203;81;21308;-84
2022/02/14 01:24:43;;;;;;;38.95;19.27;;;;;;;-2.81;82.22;101551.38;1739380;82;21754;-83
2022/02/14 01:27:49;;;;;;;35.45;18.12;;;;;;;-2.81;82.31;101543.81;1738849;79;21331;-85
2022/02/14 01:30:54;;;;;;;45.58;18.82;;;;;;;-2.83;82.21;101545.19;1734602;82;21271;-76
2022/02/14 01:33:59;;;;;;;39.00;19.77;;;;;;;-2.84;82.15;101540.77;1733190;82;21256;-76
2022/02/14 01:37:05;;;;;;;36.28;20.08;;;;;;;-2.86;81.97;101543.52;1734026;82;21363;-85
2022/02/14 01:40:12;;;;;;;37.55;18.75;;;;;;;-2.89;82.17;101542.30;1734651;82;21275;-84
2022/02/14 01:43:17;;;;;;;43.85;20.90;;;;;;;-2.90;82.05;101538.34;1750310;80;21305;-85
2022/02/14 01:46:23;;;;;;;49.53;21.52;;;;;;;-2.94;82.18;101536.25;1750365;82;21306;-77
2022/02/14 01:49:28;;;;;;;45.98;20.72;;;;;;;-2.95;82.34;101536.32;1750371;82;21684;-85
2022/02/14 01:52:35;;;;;;;37.70;19.37;;;;;;;-2.97;82.64;101532.34;1749285;82;21737;-85
2022/02/14 01:55:42;;;;;;;47.03;22.20;;;;;;;-3.02;82.65;101534.33;1750483;82;21278;-77
2022/02/14 01:58:48;;;;;;;44.08;22.55;;;;;;;-3.05;82.73;101529.59;1750349;80;21145;-82
2022/02/14 02:01:47;;;;;;;45.38;22.42;;;;;;;-3.05;82.98;101521.56;1749114;82;21784;-84
2022/02/14 02:04:53;;;;;;;40.43;20.00;;;;;;;-3.03;83.19;101519.67;1749650;82;21180;-75
2022/02/14 02:08:00;;;;;;;38.92;20.57;;;;;;;-3.03;83.24;101518.34;1749617;82;21670;-83
2022/02/14 02:14:30;;;;;;;50.38;22.40;;;;;;;-3.11;83.41;101511.94;1749826;80;21302;-84
2022/02/14 02:17:38;;;;;;;51.40;24.82;;;;;;;-3.06;83.40;101509.95;1750507;82;21294;-77
2022/02/14 02:20:45;;;;;;;46.97;22.33;;;;;;;-3.02;83.37;101516.93;1750855;82;21275;-84
2022/02/14 02:23:50;;;;;;;50.25;25.75;;;;;;;-2.98;83.61;101511.00;1750416;82;21824;-76
2022/02/14 02:27:08;;;;;;;38.65;19.57;;;;;;;-2.99;83.91;101506.11;1750116;82;21204;-77
2022/02/14 02:30:17;;;;;;;38.90;21.23;;;;;;;-3.02;83.54;101508.90;1749015;82;21291;-76
2022/02/14 02:33:22;;;;;;;46.50;22.15;;;;;;;-3.10;83.11;101511.03;1750306;82;21347;-85
2022/02/14 02:36:28;;;;;;;48.50;23.20;;;;;;;-3.17;82.80;101506.83;1750096;82;21239;-84
2022/02/14 02:39:34;;;;;;;48.13;22.13;;;;;;;-3.22;82.77;101520.39;1749439;82;21373;-85
2022/02/14 02:42:40;;;;;;;47.65;22.10;;;;;;;-3.24;82.91;101517.38;1740431;81;21169;-77
2022/02/14 02:45:46;;;;;;;45.23;21.60;;;;;;;-3.26;83.03;101512.53;1733239;82;21280;-77
2022/02/14 02:48:51;;;;;;;47.73;23.55;;;;;;;-3.27;82.99;101518.36;1733206;82;21307;-84
2022/02/14 02:51:58;;;;;;;53.63;23.80;;;;;;;-3.29;82.76;101516.22;1734388;82;21315;-85
2022/02/14 02:55:03;;;;;;;58.10;26.20;;;;;;;-3.29;82.65;101518.00;1734682;82;21189;-84
2022/02/14 02:58:07;;;;;;;48.15;24.10;;;;;;;-3.32;82.63;101520.81;1734663;81;21390;-77
2022/02/14 03:01:12;;;;;;;52.13;24.15;;;;;;;-3.33;82.77;101520.41;1734614;82;21157;-77
2022/02/14 03:04:19;;;;;;;59.93;29.30;;;;;;;-3.33;82.70;101515.06;1734610;82;21805;-82
2022/02/14 03:07:24;;;;;;;56.28;26.82;;;;;;;-3.37;82.77;101508.48;1734556;82;21303;-85
2022/02/14 03:10:29;;;;;;;49.13;26.10;;;;;;;-3.37;83.23;101512.48;1734522;82;21185;-85
2022/02/14 03:13:35;;;;;;;49.90;25.57;;;;;;;-3.39;83.20;101510.35;1734500;79;21829;-81
2022/02/14 03:16:40;;;;;;;57.15;28.50;;;;;;;-3.41;83.21;101510.86;1734365;82;21205;-85
2022/02/14 03:19:45;;;;;;;61.13;28.65;;;;;;;-3.45;83.38;101501.67;1734712;82;21836;-78
2022/02/14 03:22:51;;;;;;;63.65;29.10;;;;;;;-3.43;84.07;101508.72;1734740;82;21300;-77
2022/02/14 03:25:55;;;;;;;50.65;25.52;;;;;;;-3.38;84.32;101504.06;1734636;82;21335;-78
2022/02/14 03:29:02;;;;;;;49.85;27.10;;;;;;;-3.36;83.94;101499.98;1755631;79;21276;-77
2022/02/14 03:32:07;;;;;;;60.17;26.52;;;;;;;-3.43;83.57;101500.69;1771045;81;21355;-77
2022/02/14 03:35:13;;;;;;;56.80;28.32;;;;;;;-3.41;83.69;101503.30;1770642;81;21556;-77
2022/02/14 03:38:19;;;;;;;57.08;32.63;;;;;;;-3.38;83.48;101493.36;1771002;81;21928;-84
2022/02/14 03:41:25;;;;;;;60.43;28.10;;;;;;;-3.39;83.46;101496.97;1770817;81;21335;-78
2022/02/14 03:44:31;;;;;;;58.42;28.55;;;;;;;-3.39;83.62;101490.28;1781262;79;21217;-84
2022/02/14 03:47:36;;;;;;;59.05;27.40;;;;;;;-3.39;83.33;101496.97;1783626;80;21299;-84
2022/02/14 03:50:42;;;;;;;55.48;27.22;;;;;;;-3.37;83.27;101492.89;1784512;80;21276;-76
2022/02/14 03:53:48;;;;;;;51.48;24.75;;;;;;;-3.32;83.17;101490.04;1784713;80;21358;-84
2022/02/14 03:56:54;;;;;;;59.77;27.85;;;;;;;-3.29;83.17;101485.45;1783154;80;21299;-76
2022/02/14 04:00:00;;;;;;;43.38;25.43;;;;;;;-3.28;83.44;101485.84;1782969;80;21181;-76
2022/02/14 04:03:05;;;;;;;55.65;26.27;;;;;;;-3.20;83.46;101488.20;1783589;80;21336;-84
2022/02/14 04:06:11;;;;;;;60.00;27.15;;;;;;;-3.15;83.28;101494.28;1784296;80;21263;-76
2022/02/14 04:09:18;;;;;;;48.13;24.50;;;;;;;-3.12;83.26;101496.81;1784651;80;21268;-84
2022/02/14 04:12:24;;;;;;;49.50;22.15;;;;;;;-3.09;83.04;101489.55;1783931;80;21299;-77
2022/02/14 04:15:29;;;;;;;52.30;24.55;;;;;;;-3.06;82.76;101489.88;1784767;80;21320;-76
2022/02/14 04:18:34;;;;;;;48.68;23.52;;;;;;;-3.10;82.90;101488.28;1784642;80;21287;-84
2022/02/14 04:21:39;;;;;;;51.00;22.40;;;;;;;-3.13;82.88;101481.70;1784172;80;21838;-76
2022/02/14 04:24:45;;;;;;;45.75;22.80;;;;;;;-3.14;82.49;101477.28;1784442;80;21303;-76
2022/02/14 04:27:51;;;;;;;47.43;22.55;;;;;;;-3.18;82.12;101485.89;1783555;80;21307;-76
2022/02/14 04:30:57;;;;;;;48.10;23.20;;;;;;;-3.17;82.14;101477.39;1784649;80;21184;-83
2022/02/14 04:34:02;;;;;;;44.88;20.85;;;;;;;-3.16;81.97;101484.48;1784641;80;21260;-82
2022/02/14 04:37:07;;;;;;;44.30;20.55;;;;;;;-3.15;81.56;101479.56;1784093;80;21294;-76
2022/02/14 04:40:13;;;;;;;47.85;23.73;;;;;;;-3.15;81.29;101480.90;1784755;80;21197;-84
2022/02/14 04:43:18;;;;;;;47.23;22.62;;;;;;;-3.16;81.14;101485.82;1774546;79;21326;-76
2022/02/14 04:46:24;;;;;;;47.67;20.60;;;;;;;-3.18;81.07;101485.02;1773062;80;21311;-83
2022/02/14 04:49:30;;;;;;;50.17;22.55;;;;;;;-3.16;81.17;101485.34;1747244;82;21290;-84
2022/02/14 04:52:37;;;;;;;49.63;23.38;;;;;;;-3.18;81.29;101490.38;1717037;83;21355;-76
2022/02/14 04:55:42;;;;;;;51.33;25.80;;;;;;;-3.19;81.47;101487.30;1747178;82;21290;-84
2022/02/14 04:58:48;;;;;;;43.15;21.85;;;;;;;-3.19;82.38;101488.64;1738786;82;22119;-77
2022/02/14 05:01:54;;;;;;;42.30;22.20;;;;;;;-3.18;82.72;101493.05;1738653;82;21756;-77
2022/02/14 05:04:59;;;;;;;48.23;23.65;;;;;;;-3.16;82.61;101492.52;1742039;82;21225;-77
2022/02/14 05:08:05;;;;;;;53.98;27.58;;;;;;;-3.20;83.16;101491.78;1741427;81;21873;-85
2022/02/14 05:11:11;;;;;;;68.70;32.35;;;;;;;-3.20;83.87;101489.11;1746957;81;21700;-86
2022/02/14 05:14:17;;;;;;;67.47;31.85;;;;;;;-3.16;84.13;101499.20;1723262;82;21348;-77
2022/02/14 05:17:23;;;;;;;62.27;31.57;;;;;;;-3.14;84.29;101505.38;1711659;84;21861;-83
2022/02/14 05:20:29;;;;;;;85.75;39.85;;;;;;;-3.07;84.57;101500.66;1712193;84;21287;-78
2022/02/14 05:23:34;;;;;;;79.37;37.13;;;;;;;-2.99;84.87;101499.42;1725925;82;21188;-83
2022/02/14 05:26:41;;;;;;;71.20;32.73;;;;;;;-2.89;84.71;101499.45;1742630;82;21293;-84
2022/02/14 05:29:49;;;;;;;70.22;32.33;;;;;;;-2.80;84.63;101503.57;1737312;82;21832;-76
2022/02/14 05:32:56;;;;;;;62.93;28.60;;;;;;;-2.71;84.53;101508.55;1732373;82;21259;-84
2022/02/14 05:36:01;;;;;;;75.70;35.20;;;;;;;-2.58;84.08;101508.94;1734189;82;21284;-84
2022/02/14 05:39:06;;;;;;;64.70;32.40;;;;;;;-2.49;83.94;101510.33;1733421;82;21283;-76
2022/02/14 05:42:12;;;;;;;76.07;32.58;;;;;;;-2.43;84.11;101506.95;1731663;80;21366;-84
2022/02/14 05:45:17;;;;;;;71.77;30.88;;;;;;;-2.35;84.14;101507.98;1725642;82;21301;-76
2022/02/14 05:48:26;;;;;;;71.10;35.03;;;;;;;-2.33;84.28;101511.45;1713547;83;21516;-84
2022/02/14 05:51:30;;;;;;;55.15;30.62;;;;;;;-2.29;84.23;101504.16;1714707;81;21888;-84
2022/02/14 05:54:35;;;;;;;62.83;30.25;;;;;;;-2.25;84.43;101524.54;1713168;83;21309;-75
2022/02/14 05:57:40;;;;;;;69.82;30.25;;;;;;;-2.20;84.64;101525.21;1718534;82;21767;-84
2022/02/14 06:00:46;;;;;;;59.98;29.95;;;;;;;-2.17;84.87;101523.24;1763549;81;21306;-76
2022/02/14 06:03:52;;;;;;;53.50;26.55;;;;;;;-2.07;85.04;101521.04;1756462;81;21371;-84
2022/02/14 06:06:58;;;;;;;56.40;29.87;;;;;;;-1.97;85.11;101525.09;1761331;79;21154;-84
2022/02/14 06:10:04;;;;;;;79.77;47.73;;;;;;;-1.89;84.96;101529.63;1761146;79;21129;-76
2022/02/14 06:13:09;;;;;;;89.22;46.88;;;;;;;-1.81;84.86;101525.28;1762879;79;21268;-84
2022/02/14 06:16:15;;;;;;;65.22;34.00;;;;;;;-1.68;84.92;101526.95;1765721;81;21165;-76
2022/02/14 06:19:24;;;;;;;64.87;31.82;;;;;;;-1.53;84.93;101536.13;1765635;81;21197;-75
2022/02/14 06:22:30;;;;;;;72.03;37.33;;;;;;;-1.45;84.65;101537.53;1758868;79;21300;-77
2022/02/14 06:25:37;;;;;;;68.52;33.40;;;;;;;-1.41;84.13;101530.19;1760312;81;21683;-78
2022/02/14 06:28:43;;;;;;;61.25;31.20;;;;;;;-1.37;84.07;101531.31;1759237;79;21284;-76
2022/02/14 06:31:48;;;;;;;63.80;32.15;;;;;;;-1.35;83.87;101529.45;1761552;79;22196;-76
2022/02/14 06:34:56;;;;;;;61.42;29.75;;;;;;;-1.36;83.93;101534.42;1761963;81;21162;-77
2022/02/14 06:38:03;;;;;;;74.20;32.53;;;;;;;-1.32;84.05;101533.78;1765217;81;21896;-75
2022/02/14 06:41:11;;;;;;;66.33;33.00;;;;;;;-1.24;84.12;101536.13;1761777;79;21133;-76
2022/02/14 06:44:18;;;;;;;69.17;37.13;;;;;;;-1.13;84.27;101537.39;1752125;81;21224;-77
2022/02/14 06:47:27;;;;;;;77.80;35.70;;;;;;;-1.06;83.84;101532.11;1760975;79;21573;-83
2022/02/14 06:50:40;;;;;;;68.28;34.33;;;;;;;-1.00;83.65;101533.63;1757112;78;21192;-85
2022/02/14 06:53:45;;;;;;;63.78;33.05;;;;;;;-0.91;83.62;101525.61;1755740;81;21840;-84
2022/02/14 06:56:50;;;;;;;73.35;34.27;;;;;;;-0.81;83.53;101537.66;1766874;81;21598;-84
2022/02/14 06:59:56;;;;;;;74.75;36.05;;;;;;;-0.72;83.73;101533.18;1764507;81;21272;-76
2022/02/14 07:03:02;;;;;;;71.37;35.48;;;;;;;-0.63;83.74;101531.87;1761772;81;21212;-76
2022/02/14 07:06:08;;;;;;;74.32;37.55;;;;;;;-0.58;83.53;101525.80;1763228;79;21781;-75
2022/02/14 07:09:13;;;;;;;78.25;35.63;;;;;;;-0.52;83.48;101528.17;1761492;81;21328;-77
2022/02/14 07:12:20;;;;;;;85.10;34.78;;;;;;;-0.50;83.49;101523.61;1759410;81;21338;-76
2022/02/14 07:15:26;;;;;;;90.03;35.80;;;;;;;-0.43;83.48;101525.03;1761610;81;21797;-76
2022/02/14 07:18:32;;;;;;;85.83;36.17;;;;;;;-0.37;83.35;101527.43;1763068;80;21833;-84
2022/02/14 07:21:40;;;;;;;80.53;38.63;;;;;;;-0.29;83.14;101523.86;1762136;79;21181;-85
2022/02/14 07:24:46;;;;;;;82.22;34.43;;;;;;;-0.20;83.32;101529.25;1761277;81;21221;-84
2022/02/14 07:27:52;;;;;;;76.57;35.52;;;;;;;-0.11;83.23;101526.58;1759887;81;21182;-85
2022/02/14 07:30:57;;;;;;;79.20;40.58;;;;;;;-0.02;83.40;101525.63;1754188;79;21169;-84
2022/02/14 07:34:03;;;;;;;111.97;44.88;;;;;;;0.11;83.41;101526.34;1764772;79;21536;-84
2022/02/14 07:37:08;;;;;;;113.32;45.55;;;;;;;0.19;82.17;101520.97;1763858;79;21947;-84
2022/02/14 07:40:16;;;;;;;124.05;49.70;;;;;;;0.27;81.40;101527.75;1757780;79;21229;-83
2022/02/14 07:43:21;;;;;;;132.30;51.63;;;;;;;0.33;81.26;101516.65;1763349;81;21598;-86
2022/02/14 07:46:26;;;;;;;135.93;53.90;;;;;;;0.37;80.84;101520.92;1765512;81;21330;-83
2022/02/14 07:49:32;;;;;;;164.70;64.37;;;;;;;0.43;80.67;101516.10;1761332;79;21765;-85
2022/02/14 07:52:39;;;;;;;181.32;71.85;;;;;;;0.48;80.49;101509.99;1759061;79;21741;-84
2022/02/14 07:55:46;;;;;;;173.45;64.32;;;;;;;0.58;79.99;101521.13;1758451;81;21153;-84
2022/02/14 07:58:51;;;;;;;147.17;64.20;;;;;;;0.61;79.59;101515.59;1761742;81;21682;-76
2022/02/14 08:01:58;;;;;;;145.17;58.45;;;;;;;0.68;79.87;101511.59;1763115;79;21283;-77
2022/02/14 08:05:02;;;;;;;148.93;57.25;;;;;;;0.76;79.71;101510.71;1746361;79;21908;-76
2022/02/14 08:08:11;;;;;;;176.35;70.85;;;;;;;0.85;79.76;101506.64;1765080;81;21279;-76
2022/02/14 08:11:19;;;;;;;164.80;63.65;;;;;;;0.95;79.57;101511.04;1699547;82;21413;-76
2022/02/14 08:14:25;;;;;;;169.10;63.95;;;;;;;1.02;78.66;101510.59;1764427;81;21190;-76
2022/02/14 08:17:30;;;;;;;164.37;65.03;;;;;;;1.12;78.09;101518.16;1742485;79;21165;-77
2022/02/14 08:20:35;;;;;;;124.53;50.78;;;;;;;1.20;77.89;101507.34;1751357;81;21307;-76
2022/02/14 08:29:20;;;;;;;119.82;47.55;;;;;;;1.43;76.52;101503.33;1847326;76;28055;-79
2022/02/14 08:37:29;;;;;;;119.67;42.93;;;;;;;1.60;72.35;101510.45;1844726;76;28019;-79
2022/02/14 08:40:35;;;;;;;94.40;40.52;;;;;;;1.60;71.45;101513.16;1771552;80;21672;-80
2022/02/14 08:43:41;;;;;;;106.22;46.40;;;;;;;1.61;71.36;101513.53;1776779;80;21181;-81
2022/02/14 08:46:50;;;;;;;106.50;42.03;;;;;;;1.65;70.92;101508.84;1743930;81;21277;-79
2022/02/14 08:49:56;;;;;;;115.15;43.33;;;;;;;1.68;71.17;101505.45;1763983;80;21422;-80
2022/02/14 08:53:03;;;;;;;94.58;40.20;;;;;;;1.74;70.33;101509.16;1767980;80;21270;-80
2022/02/14 08:56:05;;;;;;;112.28;43.98;;;;;;;1.78;69.76;101501.25;1754227;80;21617;-80
2022/02/14 08:59:13;;;;;;;105.83;41.88;;;;;;;1.83;69.55;101498.28;1768434;79;21299;-80
2022/02/14 09:02:16;;;;;;;110.32;42.70;;;;;;;1.86;69.35;101498.59;1763577;80;21898;-80
2022/02/14 09:05:23;;;;;;;92.65;38.00;;;;;;;1.92;69.87;101498.22;1780901;79;21145;-81
2022/02/14 09:08:29;;;;;;;81.42;35.90;;;;;;;1.99;70.23;101486.11;1766818;81;21685;-81
2022/02/14 09:11:38;;;;;;;95.92;41.40;;;;;;;2.10;70.43;101483.61;1763589;81;21386;-81
2022/02/14 09:14:42;;;;;;;98.52;40.83;;;;;;;2.24;69.70;101483.64;1764171;80;21212;-79
2022/02/14 09:17:52;;;;;;;120.53;44.55;;;;;;;2.28;69.43;101484.33;1764343;80;21290;-80
2022/02/14 09:21:02;;;;;;;96.78;43.48;;;;;;;2.29;69.43;101477.47;1769044;80;21204;-79
2022/02/14 09:24:27;;;;;;;104.00;42.10;;;;;;;2.33;69.22;101479.99;1769570;80;21310;-80
2022/02/14 09:27:33;;;;;;;105.22;44.65;;;;;;;2.37;69.32;101469.39;1757225;80;21354;-81
2022/02/14 09:30:39;;;;;;;100.12;41.28;;;;;;;2.43;68.71;101469.00;1747349;81;21298;-79
2022/02/14 09:33:44;;;;;;;86.95;41.00;;;;;;;2.46;68.20;101470.17;1744906;81;21295;-79
2022/02/14 09:36:53;;;;;;;95.07;39.65;;;;;;;2.50;66.81;101462.27;1733569;81;21213;-80
2022/02/14 09:40:00;;;;;;;95.28;43.23;;;;;;;2.53;66.99;101462.05;1717634;82;21182;-80
2022/02/14 09:43:08;;;;;;;103.38;45.58;;;;;;;2.58;66.28;101455.88;1719673;82;21323;-81
2022/02/14 09:46:12;;;;;;;99.25;42.58;;;;;;;2.68;66.18;101451.65;1707335;83;21257;-79
2022/02/14 09:49:19;;;;;;;112.45;39.85;;;;;;;2.77;66.02;101440.22;1725588;83;21826;-81
2022/02/14 09:52:25;;;;;;;99.52;43.87;;;;;;;2.87;64.82;101431.52;1715323;83;21366;-78
2022/02/14 09:55:31;;;;;;;115.90;49.10;;;;;;;2.95;64.20;101427.84;1711892;83;21319;-79
2022/02/14 09:58:36;;;;;;;116.20;52.03;;;;;;;2.98;63.46;101427.17;1711869;83;21331;-79
2022/02/14 10:01:42;;;;;;;117.45;46.48;;;;;;;2.95;63.65;101419.25;1706214;83;21883;-79
2022/02/14 10:05:08;;;;;;;124.05;50.20;;;;;;;2.97;62.63;101424.09;1725046;83;21358;-80
2022/02/14 10:08:14;;;;;;;109.12;45.35;;;;;;;2.98;62.25;101406.03;1703145;83;21305;-81
2022/02/14 10:11:23;;;;;;;118.65;43.73;;;;;;;3.00;62.27;101412.19;1724078;83;21378;-83
2022/02/14 10:14:31;;;;;;;105.05;44.05;;;;;;;3.04;61.90;101406.48;1709601;83;21348;-80
2022/02/14 10:17:36;;;;;;;118.13;45.95;;;;;;;3.14;62.48;101398.63;1708349;83;21373;-80
2022/02/14 10:20:41;;;;;;;108.15;47.45;;;;;;;3.24;62.16;101392.98;1680000;81;21383;-80
2022/02/14 10:24:16;;;;;;;134.37;50.30;;;;;;;3.35;62.30;101397.70;1701897;83;21370;-82
2022/02/14 10:27:23;;;;;;;111.88;47.20;;;;;;;3.43;60.79;101394.45;1694464;83;21555;-81
2022/02/14 10:30:29;;;;;;;124.42;48.98;;;;;;;3.48;60.48;101385.53;1703860;83;21209;-81
2022/02/14 10:33:50;;;;;;;114.20;46.20;;;;;;;3.48;59.44;101378.77;1710598;83;21185;-81
2022/02/14 10:36:57;;;;;;;120.20;49.65;;;;;;;3.47;59.47;101374.34;1701593;83;21357;-81
2022/02/14 10:40:03;;;;;;;134.78;48.85;;;;;;;3.46;58.96;101368.55;1710514;83;21923;-80
2022/02/14 10:43:09;;;;;;;117.77;48.60;;;;;;;3.50;59.73;101365.53;1672337;83;21235;-80
2022/02/14 10:46:15;;;;;;;121.72;45.48;;;;;;;3.55;59.09;101363.38;1714123;83;21363;-82
2022/02/14 10:49:20;;;;;;;109.75;42.43;;;;;;;3.65;59.09;101364.96;1723516;82;22304;-82
2022/02/14 10:52:26;;;;;;;101.78;39.35;;;;;;;3.74;59.16;101356.20;1709136;83;21294;-82
2022/02/14 10:55:42;;;;;;;91.32;36.58;;;;;;;3.80;58.68;101359.83;1729993;83;21323;-80
2022/02/14 10:58:45;;;;;;;83.72;35.15;;;;;;;3.84;56.33;101360.48;1712217;83;21394;-81
2022/02/14 11:01:53;;;;;;;96.47;38.50;;;;;;;3.84;55.81;101353.23;1721096;83;21398;-81
2022/02/14 11:04:58;;;;;;;100.38;42.35;;;;;;;3.84;56.10;101348.31;1711991;81;21261;-80
2022/02/14 11:08:04;;;;;;;90.12;37.05;;;;;;;3.82;56.89;101337.60;1728231;83;21715;-80
2022/02/14 11:11:09;;;;;;;127.85;47.65;;;;;;;3.88;57.09;101335.44;1727004;83;21381;-80
2022/02/14 11:14:18;;;;;;;113.92;45.88;;;;;;;3.92;56.65;101331.54;1697833;83;21311;-80
2022/02/14 11:17:34;;;;;;;119.50;47.15;;;;;;;3.93;56.80;101331.91;1700349;84;21422;-80
2022/02/14 11:20:40;;;;;;;121.30;46.55;;;;;;;3.97;56.70;101322.60;1712968;83;21303;-80
2022/02/14 11:23:50;;;;;;;130.32;47.67;;;;;;;4.03;56.81;101320.80;1688857;85;21908;-80
2022/02/14 11:27:05;;;;;;;111.52;41.70;;;;;;;4.12;56.33;101317.44;1710735;83;21330;-81
2022/02/14 11:30:17;;;;;;;57.17;23.22;;;;;;;4.21;56.45;101319.48;1719298;83;21335;-81
2022/02/14 11:33:24;;;;;;;42.03;20.97;;;;;;;4.28;54.68;101322.14;1717920;83;21920;-83
2022/02/14 11:36:31;;;;;;;84.13;33.13;;;;;;;4.33;53.69;101314.54;1709885;83;21232;-81
2022/02/14 11:39:36;;;;;;;72.32;29.63;;;;;;;4.37;54.12;101315.16;1720789;82;21890;-82
2022/02/14 11:42:43;;;;;;;80.50;31.93;;;;;;;4.38;53.15;101313.34;1746909;82;21351;-81
2022/02/14 11:45:48;;;;;;;76.50;32.40;;;;;;;4.35;53.33;101315.28;1712122;82;21478;-82
2022/02/14 11:49:25;;;;;;;74.50;29.50;;;;;;;4.38;52.71;101309.28;1722299;81;21192;-81
2022/02/14 11:52:49;;;;;;;72.10;29.32;;;;;;;4.40;52.27;101302.75;1723479;81;22131;-81
2022/02/14 11:55:55;;;;;;;81.20;34.03;;;;;;;4.39;52.30;101295.61;1739189;81;21287;-81
2022/02/14 11:59:16;;;;;;;82.37;33.75;;;;;;;4.41;51.53;101295.48;1740535;81;21896;-81
2022/02/14 12:02:22;;;;;;;95.17;34.05;;;;;;;4.41;52.02;101294.13;1733192;82;21365;-80
2022/02/14 12:05:49;;;;;;;76.85;32.55;;;;;;;4.43;51.48;101288.13;1735489;81;21326;-80
2022/02/14 12:09:12;;;;;;;106.52;37.78;;;;;;;4.41;51.48;101286.87;1734384;81;21344;-81
2022/02/14 12:12:16;;;;;;;85.12;33.75;;;;;;;4.41;52.33;101281.45;1718953;82;21342;-82
2022/02/14 12:22:54;;;;;;;89.50;32.98;;;;;;;4.45;52.19;101278.03;1740133;81;21402;-80
2022/02/14 12:25:59;;;;;;;91.47;34.18;;;;;;;4.47;51.82;101276.06;1733411;81;21311;-81
2022/02/14 12:29:39;;;;;;;87.80;35.28;;;;;;;4.48;51.56;101271.05;1743011;81;21324;-81
2022/02/14 12:32:49;;;;;;;82.00;28.90;;;;;;;4.48;51.36;101275.97;1724688;82;21192;-80
2022/02/14 12:35:56;;;;;;;79.95;31.17;;;;;;;4.50;51.28;101271.29;1734587;81;21273;-80
2022/02/14 12:39:02;;;;;;;84.17;33.78;;;;;;;4.54;51.42;101271.94;1723347;81;21662;-79
2022/02/14 12:42:31;;;;;;;70.92;29.10;;;;;;;4.53;51.29;101278.34;1689015;82;21213;-80
2022/02/14 12:45:39;;;;;;;72.22;32.83;;;;;;;4.53;51.33;101276.98;1717737;83;21891;-80
2022/02/14 12:48:53;;;;;;;72.67;29.90;;;;;;;4.54;51.14;101272.80;1683218;81;21344;-81
2022/02/14 12:52:21;;;;;;;67.32;28.47;;;;;;;4.57;50.86;101271.23;1702889;81;21264;-82
2022/02/14 12:55:31;;;;;;;58.02;24.18;;;;;;;4.58;50.56;101278.37;1742462;81;21361;-80
2022/02/14 12:58:35;;;;;;;39.53;15.40;;;;;;;4.57;51.26;101269.01;1701778;82;21264;-79
2022/02/14 13:01:53;;;;;;;25.97;10.32;;;;;;;4.59;49.38;101265.19;1713741;82;21284;-80
2022/02/14 13:04:59;;;;;;;20.30;7.35;;;;;;;4.64;47.40;101275.69;1721596;83;21616;-81
2022/02/14 13:08:04;;;;;;;24.30;8.38;;;;;;;4.67;46.16;101274.11;1713062;82;21362;-81
2022/02/14 13:11:11;;;;;;;17.37;6.33;;;;;;;4.67;45.16;101260.56;1698311;82;21363;-81
2022/02/14 13:14:44;;;;;;;14.33;5.58;;;;;;;4.67;44.55;101261.05;1699123;82;21280;-79
2022/02/14 13:17:51;;;;;;;29.65;9.30;;;;;;;4.67;44.67;101261.91;1694010;84;21263;-79
2022/02/14 13:21:04;;;;;;;22.05;9.18;;;;;;;4.69;45.18;101247.75;1679609;82;21316;-79
2022/02/14 13:24:11;;;;;;;13.28;6.00;;;;;;;4.68;45.39;101252.80;1711806;82;21194;-80
2022/02/14 13:27:18;;;;;;;11.43;4.58;;;;;;;4.67;45.05;101251.08;1726675;82;21374;-79
2022/02/14 13:30:27;;;;;;;8.43;4.03;;;;;;;4.66;45.09;101251.17;1730219;81;21306;-79
2022/02/14 13:33:34;;;;;;;16.82;4.20;;;;;;;4.62;44.95;101247.84;1740049;81;21718;-79
2022/02/14 13:36:40;;;;;;;13.72;4.22;;;;;;;4.61;44.11;101245.63;1735766;81;21375;-80
2022/02/14 13:39:45;;;;;;;8.95;4.10;;;;;;;4.59;43.09;101246.71;1691994;83;21261;-80
2022/02/14 13:42:53;;;;;;;9.60;3.85;;;;;;;4.58;43.31;101251.77;1722455;81;21310;-79
2022/02/14 13:46:00;;;;;;;19.27;6.75;;;;;;;4.58;42.96;101247.70;1716967;82;22295;-79
2022/02/14 13:49:06;;;;;;;21.25;9.18;;;;;;;4.57;44.33;101244.63;1735041;82;21329;-79
2022/02/14 13:52:13;;;;;;;32.80;12.65;;;;;;;4.55;45.07;101248.78;1733918;82;21353;-81
2022/02/14 13:55:24;;;;;;;54.63;14.93;;;;;;;4.53;45.83;101249.40;1741293;80;21307;-79
2022/02/14 13:58:36;;;;;;;46.48;15.75;;;;;;;4.50;45.96;101242.84;1668290;83;22175;-79
2022/02/14 14:01:43;;;;;;;30.77;12.25;;;;;;;4.49;46.50;101241.61;1697648;83;21613;-80
2022/02/14 14:04:48;;;;;;;34.98;13.80;;;;;;;4.47;46.62;101248.52;1731281;82;21200;-80
2022/02/14 14:07:55;;;;;;;37.78;13.22;;;;;;;4.44;46.62;101240.59;1726008;80;21280;-80
2022/02/14 14:11:01;;;;;;;38.50;15.03;;;;;;;4.43;46.87;101244.79;1736752;81;21668;-79
2022/02/14 14:14:08;;;;;;;47.13;13.85;;;;;;;4.39;47.00;101244.14;1731697;82;21200;-79
2022/02/14 14:17:22;;;;;;;44.65;14.38;;;;;;;4.38;47.69;101241.56;1733746;82;21882;-79
2022/02/14 14:20:31;;;;;;;34.67;12.90;;;;;;;4.34;47.75;101241.78;1738560;82;21712;-79
2022/02/14 14:23:37;;;;;;;49.88;14.23;;;;;;;4.32;48.30;101249.63;1740173;80;21327;-80
2022/02/14 14:26:42;;;;;;;33.65;14.98;;;;;;;4.27;48.67;101252.67;1703025;83;21248;-80
2022/02/14 14:29:48;;;;;;;58.00;14.00;;;;;;;4.22;49.28;101252.14;1705234;82;21300;-80
2022/02/14 14:32:54;;;;;;;44.35;12.75;;;;;;;4.15;49.74;101245.95;1718199;82;21382;-80
2022/02/14 14:36:00;;;;;;;37.10;11.22;;;;;;;4.09;49.82;101254.02;1723524;82;21238;-80